KSZY

Robert Sibley Airport

Selmer, Tennessee, USA
METAR KSZY 190715Z AUTO 00000KT 10SM CLR 02/00 A3005 RMK A01
Observed Flight Rules
Dec-19 @ 07:15 UTC (28 minutes ago) Visual Flight Rules
Visibility Clouds
10 miles
  • Clear skies
Temperatures Readings
Current 2°C / 36°F
Dewpoint 0°C / 32°F
Humidity 87%
Altimeter 30.05" Hg
Pressure 1018 hPa
METAR KSZY 190715Z AUTO 00000KT 10SM CLR 02/00 A3005 RMK A01
Observed Flight Rules
Dec-19 @ 07:15 UTC
(28 minutes ago)
VFR
Clouds
  • Clear skies
Temperature Dewpoint
2°C / 36°F 0°C / 32°F
Humidity Altimeter Pressure
87% 30.05" Hg 1018 hPa